sensor_id;sensor_type;location;lat;lon;timestamp;temperature;humidity
19646;DHT22;9971;52.446;13.452;2022-10-16T00:03:08;15.60;99.90
19646;DHT22;9971;52.446;13.452;2022-10-16T00:08:11;15.70;99.90
19646;DHT22;9971;52.446;13.452;2022-10-16T00:13:13;15.80;99.90
19646;DHT22;9971;52.446;13.452;2022-10-16T00:18:15;15.80;99.90
19646;DHT22;9971;52.446;13.452;2022-10-16T00:23:18;15.90;99.90
19646;DHT22;9971;52.446;13.452;2022-10-16T00:28:20;16.00;99.90
19646;DHT22;9971;52.446;13.452;2022-10-16T00:33:22;16.00;99.90
19646;DHT22;9971;52.446;13.452;2022-10-16T00:38:25;16.10;99.90
19646;DHT22;9971;52.446;13.452;2022-10-16T00:43:36;16.20;99.90
19646;DHT22;9971;52.446;13.452;2022-10-16T00:48:36;16.30;99.90
19646;DHT22;9971;52.446;13.452;2022-10-16T00:53:38;16.30;99.90
19646;DHT22;9971;52.446;13.452;2022-10-16T00:58:41;16.30;99.90
19646;DHT22;9971;52.446;13.452;2022-10-16T01:03:43;16.30;99.90
19646;DHT22;9971;52.446;13.452;2022-10-16T01:08:52;16.30;99.90
19646;DHT22;9971;52.446;13.452;2022-10-16T01:13:52;16.30;99.90
19646;DHT22;9971;52.446;13.452;2022-10-16T01:18:54;16.30;99.90
19646;DHT22;9971;52.446;13.452;2022-10-16T01:29:11;16.20;99.90
19646;DHT22;9971;52.446;13.452;2022-10-16T01:34:14;16.20;99.90
19646;DHT22;9971;52.446;13.452;2022-10-16T01:39:14;16.20;99.90
19646;DHT22;9971;52.446;13.452;2022-10-16T01:44:18;16.20;99.90
19646;DHT22;9971;52.446;13.452;2022-10-16T01:49:20;16.20;99.90
19646;DHT22;9971;52.446;13.452;2022-10-16T01:54:21;16.20;99.90
19646;DHT22;9971;52.446;13.452;2022-10-16T01:59:24;16.10;99.90
19646;DHT22;9971;52.446;13.452;2022-10-16T02:04:28;16.10;99.90
19646;DHT22;9971;52.446;13.452;2022-10-16T02:09:29;16.00;99.90
19646;DHT22;9971;52.446;13.452;2022-10-16T02:14:31;16.00;99.90
19646;DHT22;9971;52.446;13.452;2022-10-16T02:19:34;16.10;99.90
19646;DHT22;9971;52.446;13.452;2022-10-16T02:24:42;16.10;99.90
19646;DHT22;9971;52.446;13.452;2022-10-16T02:29:42;16.10;99.90
19646;DHT22;9971;52.446;13.452;2022-10-16T02:34:42;16.10;99.90
19646;DHT22;9971;52.446;13.452;2022-10-16T02:39:44;16.20;99.90
19646;DHT22;9971;52.446;13.452;2022-10-16T02:44:47;16.20;99.90
19646;DHT22;9971;52.446;13.452;2022-10-16T02:49:49;16.20;99.90
19646;DHT22;9971;52.446;13.452;2022-10-16T02:54:51;16.20;99.90
19646;DHT22;9971;52.446;13.452;2022-10-16T02:59:55;16.20;99.90
19646;DHT22;9971;52.446;13.452;2022-10-16T03:04:57;16.20;99.90
19646;DHT22;9971;52.446;13.452;2022-10-16T03:09:59;16.10;99.90
19646;DHT22;9971;52.446;13.452;2022-10-16T03:15:02;16.10;99.90
19646;DHT22;9971;52.446;13.452;2022-10-16T03:20:04;16.10;99.90
19646;DHT22;9971;52.446;13.452;2022-10-16T03:25:07;16.10;99.90
19646;DHT22;9971;52.446;13.452;2022-10-16T03:30:10;16.00;99.90
19646;DHT22;9971;52.446;13.452;2022-10-16T03:35:12;16.00;99.90
19646;DHT22;9971;52.446;13.452;2022-10-16T03:40:14;15.90;99.90
19646;DHT22;9971;52.446;13.452;2022-10-16T03:45:17;15.90;99.90
19646;DHT22;9971;52.446;13.452;2022-10-16T03:50:19;15.90;99.90
19646;DHT22;9971;52.446;13.452;2022-10-16T03:55:21;15.80;99.90
19646;DHT22;9971;52.446;13.452;2022-10-16T04:00:24;15.80;99.90
19646;DHT22;9971;52.446;13.452;2022-10-16T04:05:26;15.70;99.90
19646;DHT22;9971;52.446;13.452;2022-10-16T04:10:28;15.70;99.90
19646;DHT22;9971;52.446;13.452;2022-10-16T04:15:30;15.70;99.90
19646;DHT22;9971;52.446;13.452;2022-10-16T04:20:34;15.60;99.90
19646;DHT22;9971;52.446;13.452;2022-10-16T04:25:37;15.60;99.90
19646;DHT22;9971;52.446;13.452;2022-10-16T04:30:39;15.60;99.90
19646;DHT22;9971;52.446;13.452;2022-10-16T04:35:42;15.60;99.90
19646;DHT22;9971;52.446;13.452;2022-10-16T04:40:44;15.50;99.90
19646;DHT22;9971;52.446;13.452;2022-10-16T04:45:46;15.50;99.90
19646;DHT22;9971;52.446;13.452;2022-10-16T04:50:49;15.50;99.90
19646;DHT22;9971;52.446;13.452;2022-10-16T04:55:53;15.40;99.90
19646;DHT22;9971;52.446;13.452;2022-10-16T05:00:55;15.30;99.90
19646;DHT22;9971;52.446;13.452;2022-10-16T05:05:58;15.30;99.90
19646;DHT22;9971;52.446;13.452;2022-10-16T05:11:01;15.30;99.90
19646;DHT22;9971;52.446;13.452;2022-10-16T05:16:03;15.30;99.90
19646;DHT22;9971;52.446;13.452;2022-10-16T05:21:06;15.20;99.90
19646;DHT22;9971;52.446;13.452;2022-10-16T05:26:08;15.10;99.90
19646;DHT22;9971;52.446;13.452;2022-10-16T05:31:11;15.10;99.90
19646;DHT22;9971;52.446;13.452;2022-10-16T05:36:13;15.10;99.90
19646;DHT22;9971;52.446;13.452;2022-10-16T05:41:16;15.10;99.90
19646;DHT22;9971;52.446;13.452;2022-10-16T05:46:18;15.10;99.90
19646;DHT22;9971;52.446;13.452;2022-10-16T05:51:22;15.10;99.90
19646;DHT22;9971;52.446;13.452;2022-10-16T05:56:25;15.20;99.90
19646;DHT22;9971;52.446;13.452;2022-10-16T06:01:28;15.20;99.90
19646;DHT22;9971;52.446;13.452;2022-10-16T06:06:30;15.20;99.90
19646;DHT22;9971;52.446;13.452;2022-10-16T06:11:33;15.20;99.90
19646;DHT22;9971;52.446;13.452;2022-10-16T06:16:34;15.20;99.90
19646;DHT22;9971;52.446;13.452;2022-10-16T06:21:36;15.30;99.90
19646;DHT22;9971;52.446;13.452;2022-10-16T06:26:38;15.40;99.90
19646;DHT22;9971;52.446;13.452;2022-10-16T06:31:41;15.40;99.90
19646;DHT22;9971;52.446;13.452;2022-10-16T06:36:43;15.50;99.90
19646;DHT22;9971;52.446;13.452;2022-10-16T06:41:45;15.50;99.90
19646;DHT22;9971;52.446;13.452;2022-10-16T06:46:48;15.60;99.90
19646;DHT22;9971;52.446;13.452;2022-10-16T06:51:50;15.70;99.90
19646;DHT22;9971;52.446;13.452;2022-10-16T06:56:53;15.70;99.90
19646;DHT22;9971;52.446;13.452;2022-10-16T07:01:56;15.70;99.90
19646;DHT22;9971;52.446;13.452;2022-10-16T07:07:00;15.80;99.90
19646;DHT22;9971;52.446;13.452;2022-10-16T07:12:00;15.90;99.90
19646;DHT22;9971;52.446;13.452;2022-10-16T07:17:03;16.00;99.90
19646;DHT22;9971;52.446;13.452;2022-10-16T07:22:05;16.30;99.90
19646;DHT22;9971;52.446;13.452;2022-10-16T07:27:08;16.50;99.90
19646;DHT22;9971;52.446;13.452;2022-10-16T07:32:10;16.80;99.90
19646;DHT22;9971;52.446;13.452;2022-10-16T07:37:13;17.10;99.90
19646;DHT22;9971;52.446;13.452;2022-10-16T07:42:15;17.30;99.90
19646;DHT22;9971;52.446;13.452;2022-10-16T07:47:19;17.50;99.90
19646;DHT22;9971;52.446;13.452;2022-10-16T07:52:22;17.60;99.90
19646;DHT22;9971;52.446;13.452;2022-10-16T07:57:25;17.60;99.90
19646;DHT22;9971;52.446;13.452;2022-10-16T08:02:27;17.60;99.90
19646;DHT22;9971;52.446;13.452;2022-10-16T08:07:30;17.60;99.90
19646;DHT22;9971;52.446;13.452;2022-10-16T08:12:32;17.70;99.90
19646;DHT22;9971;52.446;13.452;2022-10-16T08:17:35;17.70;99.90
19646;DHT22;9971;52.446;13.452;2022-10-16T08:22:37;17.80;99.90
19646;DHT22;9971;52.446;13.452;2022-10-16T08:27:40;17.90;99.90
19646;DHT22;9971;52.446;13.452;2022-10-16T08:32:43;18.10;99.90
19646;DHT22;9971;52.446;13.452;2022-10-16T08:37:46;18.20;99.90
19646;DHT22;9971;52.446;13.452;2022-10-16T08:48:27;18.40;99.90
19646;DHT22;9971;52.446;13.452;2022-10-16T08:53:31;18.50;99.90
19646;DHT22;9971;52.446;13.452;2022-10-16T08:58:38;18.60;99.90
19646;DHT22;9971;52.446;13.452;2022-10-16T09:03:56;18.50;99.90
19646;DHT22;9971;52.446;13.452;2022-10-16T09:09:06;18.50;99.90
19646;DHT22;9971;52.446;13.452;2022-10-16T09:19:19;18.80;99.90
19646;DHT22;9971;52.446;13.452;2022-10-16T09:24:20;19.10;99.90
19646;DHT22;9971;52.446;13.452;2022-10-16T09:29:21;19.20;99.90
19646;DHT22;9971;52.446;13.452;2022-10-16T09:34:28;19.30;99.90
19646;DHT22;9971;52.446;13.452;2022-10-16T09:39:27;19.30;99.90
19646;DHT22;9971;52.446;13.452;2022-10-16T09:44:30;19.30;99.90
19646;DHT22;9971;52.446;13.452;2022-10-16T09:49:32;19.30;99.90
19646;DHT22;9971;52.446;13.452;2022-10-16T09:54:34;19.60;99.90
19646;DHT22;9971;52.446;13.452;2022-10-16T09:59:45;19.80;99.90
19646;DHT22;9971;52.446;13.452;2022-10-16T10:04:40;19.70;99.90
19646;DHT22;9971;52.446;13.452;2022-10-16T10:09:42;19.80;99.90
19646;DHT22;9971;52.446;13.452;2022-10-16T10:14:46;19.70;99.90
19646;DHT22;9971;52.446;13.452;2022-10-16T10:19:53;19.80;99.90
19646;DHT22;9971;52.446;13.452;2022-10-16T10:25:15;19.90;99.90
19646;DHT22;9971;52.446;13.452;2022-10-16T10:30:19;20.00;99.90
19646;DHT22;9971;52.446;13.452;2022-10-16T10:35:26;20.00;99.90
19646;DHT22;9971;52.446;13.452;2022-10-16T10:45:43;20.00;99.90
19646;DHT22;9971;52.446;13.452;2022-10-16T10:50:57;20.20;99.90
19646;DHT22;9971;52.446;13.452;2022-10-16T10:56:05;20.40;99.90
19646;DHT22;9971;52.446;13.452;2022-10-16T11:01:06;20.70;99.90
19646;DHT22;9971;52.446;13.452;2022-10-16T11:06:12;20.90;99.90
19646;DHT22;9971;52.446;13.452;2022-10-16T11:16:33;20.90;99.90
19646;DHT22;9971;52.446;13.452;2022-10-16T11:21:36;21.30;99.90
19646;DHT22;9971;52.446;13.452;2022-10-16T11:26:37;21.50;99.90
19646;DHT22;9971;52.446;13.452;2022-10-16T11:31:43;21.50;99.90
19646;DHT22;9971;52.446;13.452;2022-10-16T11:37:02;21.40;99.90
19646;DHT22;9971;52.446;13.452;2022-10-16T11:42:19;21.30;99.90
19646;DHT22;9971;52.446;13.452;2022-10-16T11:47:34;21.20;99.90
19646;DHT22;9971;52.446;13.452;2022-10-16T11:52:38;21.20;99.90
19646;DHT22;9971;52.446;13.452;2022-10-16T11:57:42;21.50;99.90
19646;DHT22;9971;52.446;13.452;2022-10-16T12:08:10;22.00;99.90
19646;DHT22;9971;52.446;13.452;2022-10-16T12:18:24;21.90;99.90
19646;DHT22;9971;52.446;13.452;2022-10-16T12:23:26;21.80;99.90
19646;DHT22;9971;52.446;13.452;2022-10-16T12:28:29;21.70;99.90
19646;DHT22;9971;52.446;13.452;2022-10-16T12:33:31;22.00;99.90
19646;DHT22;9971;52.446;13.452;2022-10-16T12:38:45;22.40;99.90
19646;DHT22;9971;52.446;13.452;2022-10-16T12:43:44;22.40;99.90
19646;DHT22;9971;52.446;13.452;2022-10-16T12:48:43;22.00;99.90
19646;DHT22;9971;52.446;13.452;2022-10-16T12:53:45;22.00;99.90
19646;DHT22;9971;52.446;13.452;2022-10-16T12:58:57;21.90;99.90
19646;DHT22;9971;52.446;13.452;2022-10-16T13:04:15;21.90;99.90
19646;DHT22;9971;52.446;13.452;2022-10-16T13:09:38;21.80;99.90
19646;DHT22;9971;52.446;13.452;2022-10-16T13:14:54;21.60;99.90
19646;DHT22;9971;52.446;13.452;2022-10-16T13:25:28;21.80;99.90
19646;DHT22;9971;52.446;13.452;2022-10-16T13:30:29;21.90;99.90
19646;DHT22;9971;52.446;13.452;2022-10-16T13:35:31;22.00;99.90
19646;DHT22;9971;52.446;13.452;2022-10-16T13:40:31;21.70;99.90
19646;DHT22;9971;52.446;13.452;2022-10-16T13:45:34;21.70;99.90
19646;DHT22;9971;52.446;13.452;2022-10-16T13:50:36;21.70;99.90
19646;DHT22;9971;52.446;13.452;2022-10-16T13:55:38;21.60;99.90
19646;DHT22;9971;52.446;13.452;2022-10-16T14:00:41;21.60;99.90
19646;DHT22;9971;52.446;13.452;2022-10-16T14:05:53;21.50;99.90
19646;DHT22;9971;52.446;13.452;2022-10-16T14:10:55;21.50;99.90
19646;DHT22;9971;52.446;13.452;2022-10-16T14:15:56;21.40;99.90
19646;DHT22;9971;52.446;13.452;2022-10-16T14:21:07;21.90;99.90
19646;DHT22;9971;52.446;13.452;2022-10-16T14:26:12;22.40;99.90
19646;DHT22;9971;52.446;13.452;2022-10-16T14:31:24;22.60;99.90
19646;DHT22;9971;52.446;13.452;2022-10-16T14:36:24;22.90;99.90
19646;DHT22;9971;52.446;13.452;2022-10-16T14:41:26;23.00;99.90
19646;DHT22;9971;52.446;13.452;2022-10-16T14:46:37;23.10;99.90
19646;DHT22;9971;52.446;13.452;2022-10-16T14:51:38;23.30;99.90
19646;DHT22;9971;52.446;13.452;2022-10-16T14:56:47;23.30;99.90
19646;DHT22;9971;52.446;13.452;2022-10-16T15:01:48;23.20;99.90
19646;DHT22;9971;52.446;13.452;2022-10-16T15:06:50;23.20;99.90
19646;DHT22;9971;52.446;13.452;2022-10-16T15:11:53;23.00;99.90
19646;DHT22;9971;52.446;13.452;2022-10-16T15:16:55;22.90;99.90
19646;DHT22;9971;52.446;13.452;2022-10-16T15:21:58;22.80;99.90
19646;DHT22;9971;52.446;13.452;2022-10-16T15:27:00;22.60;99.90
19646;DHT22;9971;52.446;13.452;2022-10-16T15:32:03;22.40;99.90
19646;DHT22;9971;52.446;13.452;2022-10-16T15:37:05;21.90;99.90
19646;DHT22;9971;52.446;13.452;2022-10-16T15:42:07;21.50;99.90
19646;DHT22;9971;52.446;13.452;2022-10-16T15:47:10;21.30;99.90
19646;DHT22;9971;52.446;13.452;2022-10-16T15:52:12;21.10;99.90
19646;DHT22;9971;52.446;13.452;2022-10-16T15:57:15;20.90;99.90
19646;DHT22;9971;52.446;13.452;2022-10-16T16:02:17;20.70;99.90
19646;DHT22;9971;52.446;13.452;2022-10-16T16:07:20;20.50;99.90
19646;DHT22;9971;52.446;13.452;2022-10-16T16:12:22;20.20;99.90
19646;DHT22;9971;52.446;13.452;2022-10-16T16:17:25;20.00;99.90
19646;DHT22;9971;52.446;13.452;2022-10-16T16:22:27;19.80;99.90
19646;DHT22;9971;52.446;13.452;2022-10-16T16:27:29;19.50;99.90
19646;DHT22;9971;52.446;13.452;2022-10-16T16:32:31;19.20;99.90
19646;DHT22;9971;52.446;13.452;2022-10-16T16:37:34;18.90;99.90
19646;DHT22;9971;52.446;13.452;2022-10-16T16:42:36;18.60;99.90
19646;DHT22;9971;52.446;13.452;2022-10-16T16:47:38;18.20;99.90
19646;DHT22;9971;52.446;13.452;2022-10-16T16:52:41;17.80;99.90
19646;DHT22;9971;52.446;13.452;2022-10-16T16:57:44;17.60;99.90
19646;DHT22;9971;52.446;13.452;2022-10-16T17:02:48;17.30;99.90
19646;DHT22;9971;52.446;13.452;2022-10-16T17:07:50;17.10;99.90
19646;DHT22;9971;52.446;13.452;2022-10-16T17:12:52;17.00;99.90
19646;DHT22;9971;52.446;13.452;2022-10-16T17:17:55;16.80;99.90
19646;DHT22;9971;52.446;13.452;2022-10-16T17:22:57;16.60;99.90
19646;DHT22;9971;52.446;13.452;2022-10-16T17:28:00;16.40;99.90
19646;DHT22;9971;52.446;13.452;2022-10-16T17:33:03;16.30;99.90
19646;DHT22;9971;52.446;13.452;2022-10-16T17:38:04;16.10;99.90
19646;DHT22;9971;52.446;13.452;2022-10-16T17:43:07;16.10;99.90
19646;DHT22;9971;52.446;13.452;2022-10-16T17:48:09;15.90;99.90
19646;DHT22;9971;52.446;13.452;2022-10-16T17:53:12;15.80;99.90
19646;DHT22;9971;52.446;13.452;2022-10-16T17:58:14;15.60;99.90
19646;DHT22;9971;52.446;13.452;2022-10-16T18:03:17;15.50;99.90
19646;DHT22;9971;52.446;13.452;2022-10-16T18:08:19;15.40;99.90
19646;DHT22;9971;52.446;13.452;2022-10-16T18:13:22;15.30;99.90
19646;DHT22;9971;52.446;13.452;2022-10-16T18:18:24;15.20;99.90
19646;DHT22;9971;52.446;13.452;2022-10-16T18:23:26;15.10;99.90
19646;DHT22;9971;52.446;13.452;2022-10-16T18:28:28;15.10;99.90
19646;DHT22;9971;52.446;13.452;2022-10-16T18:33:31;14.90;99.90
19646;DHT22;9971;52.446;13.452;2022-10-16T18:38:32;14.90;99.90
19646;DHT22;9971;52.446;13.452;2022-10-16T18:43:35;14.80;99.90
19646;DHT22;9971;52.446;13.452;2022-10-16T18:48:37;14.80;99.90
19646;DHT22;9971;52.446;13.452;2022-10-16T18:53:39;14.70;99.90
19646;DHT22;9971;52.446;13.452;2022-10-16T18:58:41;14.60;99.90
19646;DHT22;9971;52.446;13.452;2022-10-16T19:03:42;14.50;99.90
19646;DHT22;9971;52.446;13.452;2022-10-16T19:08:45;14.50;99.90
19646;DHT22;9971;52.446;13.452;2022-10-16T19:13:47;14.40;99.90
19646;DHT22;9971;52.446;13.452;2022-10-16T19:18:50;14.40;99.90
19646;DHT22;9971;52.446;13.452;2022-10-16T19:23:52;14.40;99.90
19646;DHT22;9971;52.446;13.452;2022-10-16T19:28:55;14.30;99.90
19646;DHT22;9971;52.446;13.452;2022-10-16T19:33:57;14.20;99.90
19646;DHT22;9971;52.446;13.452;2022-10-16T19:38:59;14.20;99.90
19646;DHT22;9971;52.446;13.452;2022-10-16T19:44:01;14.20;99.90
19646;DHT22;9971;52.446;13.452;2022-10-16T19:49:04;14.20;99.90
19646;DHT22;9971;52.446;13.452;2022-10-16T19:54:07;14.20;99.90
19646;DHT22;9971;52.446;13.452;2022-10-16T19:59:08;14.20;99.90
19646;DHT22;9971;52.446;13.452;2022-10-16T20:04:10;14.30;99.90
19646;DHT22;9971;52.446;13.452;2022-10-16T20:09:17;14.20;99.90
19646;DHT22;9971;52.446;13.452;2022-10-16T20:14:20;14.30;99.90
19646;DHT22;9971;52.446;13.452;2022-10-16T20:19:23;14.20;99.90
19646;DHT22;9971;52.446;13.452;2022-10-16T20:24:25;14.10;99.90
19646;DHT22;9971;52.446;13.452;2022-10-16T20:29:28;14.10;99.90
19646;DHT22;9971;52.446;13.452;2022-10-16T20:34:30;14.00;99.90
19646;DHT22;9971;52.446;13.452;2022-10-16T20:39:33;14.00;99.90
19646;DHT22;9971;52.446;13.452;2022-10-16T20:44:35;13.90;99.90
19646;DHT22;9971;52.446;13.452;2022-10-16T20:49:38;13.90;99.90
19646;DHT22;9971;52.446;13.452;2022-10-16T20:54:43;13.90;99.90
19646;DHT22;9971;52.446;13.452;2022-10-16T20:59:43;13.90;99.90
19646;DHT22;9971;52.446;13.452;2022-10-16T21:04:46;13.90;99.90
19646;DHT22;9971;52.446;13.452;2022-10-16T21:09:48;13.90;99.90
19646;DHT22;9971;52.446;13.452;2022-10-16T21:14:50;13.80;99.90
19646;DHT22;9971;52.446;13.452;2022-10-16T21:19:52;13.80;99.90
19646;DHT22;9971;52.446;13.452;2022-10-16T21:24:55;13.80;99.90
19646;DHT22;9971;52.446;13.452;2022-10-16T21:29:57;13.80;99.90
19646;DHT22;9971;52.446;13.452;2022-10-16T21:35:01;13.80;99.90
19646;DHT22;9971;52.446;13.452;2022-10-16T21:40:04;13.80;99.90
19646;DHT22;9971;52.446;13.452;2022-10-16T21:45:07;13.70;99.90
19646;DHT22;9971;52.446;13.452;2022-10-16T21:50:09;13.70;99.90
19646;DHT22;9971;52.446;13.452;2022-10-16T21:55:12;13.70;99.90
19646;DHT22;9971;52.446;13.452;2022-10-16T22:00:14;13.80;99.90
19646;DHT22;9971;52.446;13.452;2022-10-16T22:05:17;13.70;99.90
19646;DHT22;9971;52.446;13.452;2022-10-16T22:10:19;13.70;99.90
19646;DHT22;9971;52.446;13.452;2022-10-16T22:15:21;13.70;99.90
19646;DHT22;9971;52.446;13.452;2022-10-16T22:20:24;13.70;99.90
19646;DHT22;9971;52.446;13.452;2022-10-16T22:25:27;13.70;99.90
19646;DHT22;9971;52.446;13.452;2022-10-16T22:30:29;13.60;99.90
19646;DHT22;9971;52.446;13.452;2022-10-16T22:35:36;13.60;99.90
19646;DHT22;9971;52.446;13.452;2022-10-16T22:40:37;13.60;99.90
19646;DHT22;9971;52.446;13.452;2022-10-16T22:45:39;13.60;99.90
19646;DHT22;9971;52.446;13.452;2022-10-16T22:50:42;13.60;99.90
19646;DHT22;9971;52.446;13.452;2022-10-16T22:55:45;13.70;99.90
19646;DHT22;9971;52.446;13.452;2022-10-16T23:00:47;13.70;99.90
19646;DHT22;9971;52.446;13.452;2022-10-16T23:05:49;13.70;99.90
19646;DHT22;9971;52.446;13.452;2022-10-16T23:10:51;13.70;99.90
19646;DHT22;9971;52.446;13.452;2022-10-16T23:15:54;13.80;99.90
19646;DHT22;9971;52.446;13.452;2022-10-16T23:20:56;13.80;99.90
19646;DHT22;9971;52.446;13.452;2022-10-16T23:25:59;13.80;99.90
19646;DHT22;9971;52.446;13.452;2022-10-16T23:31:02;13.90;99.90
19646;DHT22;9971;52.446;13.452;2022-10-16T23:36:05;13.90;99.90
19646;DHT22;9971;52.446;13.452;2022-10-16T23:41:07;13.90;99.90
19646;DHT22;9971;52.446;13.452;2022-10-16T23:46:12;14.00;99.90
19646;DHT22;9971;52.446;13.452;2022-10-16T23:51:11;14.00;99.90
19646;DHT22;9971;52.446;13.452;2022-10-16T23:56:14;14.00;99.90
